sensor_id;sensor_type;location;lat;lon;timestamp;P1;durP1;ratioP1;P2;durP2;ratioP2
18917;SDS011;9591;52.742;13.650;2024-03-29T00:01:17;0.93;;;0.90;;
18917;SDS011;9591;52.742;13.650;2024-03-29T00:04:02;2.03;;;0.80;;
18917;SDS011;9591;52.742;13.650;2024-03-29T00:06:47;1.00;;;1.00;;
18917;SDS011;9591;52.742;13.650;2024-03-29T00:09:31;1.00;;;0.90;;
18917;SDS011;9591;52.742;13.650;2024-03-29T00:12:16;0.73;;;0.73;;
18917;SDS011;9591;52.742;13.650;2024-03-29T00:15:03;1.83;;;0.87;;
18917;SDS011;9591;52.742;13.650;2024-03-29T00:17:48;2.33;;;0.93;;
18917;SDS011;9591;52.742;13.650;2024-03-29T00:20:33;1.23;;;0.80;;
18917;SDS011;9591;52.742;13.650;2024-03-29T00:23:18;1.00;;;0.83;;
18917;SDS011;9591;52.742;13.650;2024-03-29T00:26:03;0.90;;;0.90;;
18917;SDS011;9591;52.742;13.650;2024-03-29T00:28:48;2.30;;;1.07;;
18917;SDS011;9591;52.742;13.650;2024-03-29T00:31:35;0.87;;;0.87;;
18917;SDS011;9591;52.742;13.650;2024-03-29T00:34:20;1.20;;;1.10;;
18917;SDS011;9591;52.742;13.650;2024-03-29T00:37:05;3.20;;;1.17;;
18917;SDS011;9591;52.742;13.650;2024-03-29T00:39:49;4.03;;;0.90;;
18917;SDS011;9591;52.742;13.650;2024-03-29T00:42:34;1.37;;;0.90;;
18917;SDS011;9591;52.742;13.650;2024-03-29T00:45:19;1.43;;;1.00;;
18917;SDS011;9591;52.742;13.650;2024-03-29T00:48:06;2.90;;;1.30;;
18917;SDS011;9591;52.742;13.650;2024-03-29T00:50:51;4.73;;;1.10;;
18917;SDS011;9591;52.742;13.650;2024-03-29T00:53:36;1.30;;;1.20;;
18917;SDS011;9591;52.742;13.650;2024-03-29T00:56:21;2.27;;;0.93;;
18917;SDS011;9591;52.742;13.650;2024-03-29T00:59:06;1.03;;;0.93;;
18917;SDS011;9591;52.742;13.650;2024-03-29T01:01:51;1.13;;;0.83;;
18917;SDS011;9591;52.742;13.650;2024-03-29T01:04:37;1.20;;;0.70;;
18917;SDS011;9591;52.742;13.650;2024-03-29T01:07:22;1.00;;;1.00;;
18917;SDS011;9591;52.742;13.650;2024-03-29T01:10:07;0.90;;;0.90;;
18917;SDS011;9591;52.742;13.650;2024-03-29T01:12:53;1.63;;;1.00;;
18917;SDS011;9591;52.742;13.650;2024-03-29T01:15:37;0.80;;;0.80;;
18917;SDS011;9591;52.742;13.650;2024-03-29T01:18:22;0.80;;;0.80;;
18917;SDS011;9591;52.742;13.650;2024-03-29T01:21:08;1.70;;;0.90;;
18917;SDS011;9591;52.742;13.650;2024-03-29T01:23:53;3.57;;;1.00;;
18917;SDS011;9591;52.742;13.650;2024-03-29T01:26:38;3.03;;;1.10;;
18917;SDS011;9591;52.742;13.650;2024-03-29T01:29:23;2.30;;;0.90;;
18917;SDS011;9591;52.742;13.650;2024-03-29T01:32:08;2.83;;;0.90;;
18917;SDS011;9591;52.742;13.650;2024-03-29T01:34:53;2.60;;;0.90;;
18917;SDS011;9591;52.742;13.650;2024-03-29T01:37:40;2.53;;;1.10;;
18917;SDS011;9591;52.742;13.650;2024-03-29T01:40:24;1.10;;;1.10;;
18917;SDS011;9591;52.742;13.650;2024-03-29T01:43:09;0.83;;;0.83;;
18917;SDS011;9591;52.742;13.650;2024-03-29T01:45:55;3.23;;;1.10;;
18917;SDS011;9591;52.742;13.650;2024-03-29T01:48:41;1.90;;;0.90;;
18917;SDS011;9591;52.742;13.650;2024-03-29T01:51:27;1.83;;;1.07;;
18917;SDS011;9591;52.742;13.650;2024-03-29T01:54:15;1.23;;;1.07;;
18917;SDS011;9591;52.742;13.650;2024-03-29T01:57:01;2.30;;;1.00;;
18917;SDS011;9591;52.742;13.650;2024-03-29T01:59:47;1.40;;;1.30;;
18917;SDS011;9591;52.742;13.650;2024-03-29T02:02:33;1.97;;;1.30;;
18917;SDS011;9591;52.742;13.650;2024-03-29T02:05:19;1.20;;;1.20;;
18917;SDS011;9591;52.742;13.650;2024-03-29T02:08:05;1.90;;;1.33;;
18917;SDS011;9591;52.742;13.650;2024-03-29T02:10:53;2.40;;;1.07;;
18917;SDS011;9591;52.742;13.650;2024-03-29T02:13:40;2.10;;;1.20;;
18917;SDS011;9591;52.742;13.650;2024-03-29T02:16:27;2.83;;;1.20;;
18917;SDS011;9591;52.742;13.650;2024-03-29T02:19:13;2.20;;;1.30;;
18917;SDS011;9591;52.742;13.650;2024-03-29T02:22:00;1.73;;;1.30;;
18917;SDS011;9591;52.742;13.650;2024-03-29T02:24:51;1.37;;;1.27;;
18917;SDS011;9591;52.742;13.650;2024-03-29T02:27:37;1.30;;;1.30;;
18917;SDS011;9591;52.742;13.650;2024-03-29T02:30:23;3.63;;;1.30;;
18917;SDS011;9591;52.742;13.650;2024-03-29T02:33:09;1.10;;;1.10;;
18917;SDS011;9591;52.742;13.650;2024-03-29T02:35:55;1.97;;;1.37;;
18917;SDS011;9591;52.742;13.650;2024-03-29T02:38:41;3.70;;;1.47;;
18917;SDS011;9591;52.742;13.650;2024-03-29T02:41:28;2.60;;;1.20;;
18917;SDS011;9591;52.742;13.650;2024-03-29T02:44:15;3.37;;;1.27;;
18917;SDS011;9591;52.742;13.650;2024-03-29T02:47:01;2.97;;;1.30;;
18917;SDS011;9591;52.742;13.650;2024-03-29T02:49:46;3.23;;;1.37;;
18917;SDS011;9591;52.742;13.650;2024-03-29T02:52:31;3.77;;;1.53;;
18917;SDS011;9591;52.742;13.650;2024-03-29T02:55:17;1.87;;;1.40;;
18917;SDS011;9591;52.742;13.650;2024-03-29T02:58:03;1.67;;;1.30;;
18917;SDS011;9591;52.742;13.650;2024-03-29T03:00:49;1.63;;;1.33;;
18917;SDS011;9591;52.742;13.650;2024-03-29T03:03:33;1.73;;;1.60;;
18917;SDS011;9591;52.742;13.650;2024-03-29T03:06:20;1.43;;;1.33;;
18917;SDS011;9591;52.742;13.650;2024-03-29T03:09:05;3.47;;;1.57;;
18917;SDS011;9591;52.742;13.650;2024-03-29T03:12:08;1.73;;;1.53;;
18917;SDS011;9591;52.742;13.650;2024-03-29T03:14:55;3.40;;;1.70;;
18917;SDS011;9591;52.742;13.650;2024-03-29T03:17:41;3.00;;;1.63;;
18917;SDS011;9591;52.742;13.650;2024-03-29T03:20:27;1.97;;;1.53;;
18917;SDS011;9591;52.742;13.650;2024-03-29T03:23:14;1.70;;;1.60;;
18917;SDS011;9591;52.742;13.650;2024-03-29T03:26:02;2.40;;;1.57;;
18917;SDS011;9591;52.742;13.650;2024-03-29T03:28:48;2.10;;;1.43;;
18917;SDS011;9591;52.742;13.650;2024-03-29T03:31:35;1.70;;;1.60;;
18917;SDS011;9591;52.742;13.650;2024-03-29T03:34:20;1.60;;;1.50;;
18917;SDS011;9591;52.742;13.650;2024-03-29T03:37:05;1.77;;;1.50;;
18917;SDS011;9591;52.742;13.650;2024-03-29T03:39:50;3.63;;;1.57;;
18917;SDS011;9591;52.742;13.650;2024-03-29T03:42:36;1.93;;;1.53;;
18917;SDS011;9591;52.742;13.650;2024-03-29T03:45:21;1.70;;;1.60;;
18917;SDS011;9591;52.742;13.650;2024-03-29T03:48:08;3.97;;;1.50;;
18917;SDS011;9591;52.742;13.650;2024-03-29T03:50:55;3.03;;;1.70;;
18917;SDS011;9591;52.742;13.650;2024-03-29T03:53:40;2.20;;;1.70;;
18917;SDS011;9591;52.742;13.650;2024-03-29T03:56:25;5.57;;;1.90;;
18917;SDS011;9591;52.742;13.650;2024-03-29T03:59:11;3.50;;;1.40;;
18917;SDS011;9591;52.742;13.650;2024-03-29T04:01:56;2.30;;;1.63;;
18917;SDS011;9591;52.742;13.650;2024-03-29T04:04:43;2.80;;;1.70;;
18917;SDS011;9591;52.742;13.650;2024-03-29T04:07:32;4.70;;;1.90;;
18917;SDS011;9591;52.742;13.650;2024-03-29T04:10:17;5.27;;;2.03;;
18917;SDS011;9591;52.742;13.650;2024-03-29T04:13:03;3.10;;;1.73;;
18917;SDS011;9591;52.742;13.650;2024-03-29T04:15:48;2.10;;;1.90;;
18917;SDS011;9591;52.742;13.650;2024-03-29T04:18:34;1.47;;;1.47;;
18917;SDS011;9591;52.742;13.650;2024-03-29T04:21:21;3.40;;;2.00;;
18917;SDS011;9591;52.742;13.650;2024-03-29T04:24:07;2.03;;;1.70;;
18917;SDS011;9591;52.742;13.650;2024-03-29T04:26:54;8.70;;;1.80;;
18917;SDS011;9591;52.742;13.650;2024-03-29T04:29:38;1.73;;;1.63;;
18917;SDS011;9591;52.742;13.650;2024-03-29T04:32:24;2.40;;;2.00;;
18917;SDS011;9591;52.742;13.650;2024-03-29T04:35:09;2.20;;;2.00;;
18917;SDS011;9591;52.742;13.650;2024-03-29T04:37:56;2.83;;;1.90;;
18917;SDS011;9591;52.742;13.650;2024-03-29T04:40:42;3.10;;;2.70;;
18917;SDS011;9591;52.742;13.650;2024-03-29T04:43:28;2.73;;;2.10;;
18917;SDS011;9591;52.742;13.650;2024-03-29T04:46:14;2.50;;;1.83;;
18917;SDS011;9591;52.742;13.650;2024-03-29T04:49:00;2.43;;;2.20;;
18917;SDS011;9591;52.742;13.650;2024-03-29T04:51:46;2.90;;;2.00;;
18917;SDS011;9591;52.742;13.650;2024-03-29T04:54:33;4.33;;;2.10;;
18917;SDS011;9591;52.742;13.650;2024-03-29T04:57:19;2.93;;;1.90;;
18917;SDS011;9591;52.742;13.650;2024-03-29T05:00:05;1.90;;;1.80;;
18917;SDS011;9591;52.742;13.650;2024-03-29T05:02:52;2.67;;;1.63;;
18917;SDS011;9591;52.742;13.650;2024-03-29T05:05:38;5.67;;;2.00;;
18917;SDS011;9591;52.742;13.650;2024-03-29T05:08:24;2.53;;;1.77;;
18917;SDS011;9591;52.742;13.650;2024-03-29T05:11:11;4.23;;;1.60;;
18917;SDS011;9591;52.742;13.650;2024-03-29T05:13:59;2.37;;;1.70;;
18917;SDS011;9591;52.742;13.650;2024-03-29T05:16:47;4.67;;;1.57;;
18917;SDS011;9591;52.742;13.650;2024-03-29T05:19:33;1.80;;;1.60;;
18917;SDS011;9591;52.742;13.650;2024-03-29T05:22:18;1.70;;;1.60;;
18917;SDS011;9591;52.742;13.650;2024-03-29T05:25:04;2.50;;;1.57;;
18917;SDS011;9591;52.742;13.650;2024-03-29T05:27:53;1.93;;;1.63;;
18917;SDS011;9591;52.742;13.650;2024-03-29T05:30:39;1.67;;;1.57;;
18917;SDS011;9591;52.742;13.650;2024-03-29T05:33:24;1.37;;;1.23;;
18917;SDS011;9591;52.742;13.650;2024-03-29T05:36:10;2.73;;;1.47;;
18917;SDS011;9591;52.742;13.650;2024-03-29T05:38:57;1.50;;;1.40;;
18917;SDS011;9591;52.742;13.650;2024-03-29T05:41:42;1.73;;;1.53;;
18917;SDS011;9591;52.742;13.650;2024-03-29T05:44:29;2.37;;;1.40;;
18917;SDS011;9591;52.742;13.650;2024-03-29T05:47:15;3.93;;;1.53;;
18917;SDS011;9591;52.742;13.650;2024-03-29T05:50:01;1.80;;;1.70;;
18917;SDS011;9591;52.742;13.650;2024-03-29T05:52:47;2.60;;;1.53;;
18917;SDS011;9591;52.742;13.650;2024-03-29T05:55:33;1.97;;;1.70;;
18917;SDS011;9591;52.742;13.650;2024-03-29T05:58:19;2.57;;;1.40;;
18917;SDS011;9591;52.742;13.650;2024-03-29T06:01:06;1.50;;;1.40;;
18917;SDS011;9591;52.742;13.650;2024-03-29T06:03:52;1.83;;;1.60;;
18917;SDS011;9591;52.742;13.650;2024-03-29T06:06:40;2.40;;;2.07;;
18917;SDS011;9591;52.742;13.650;2024-03-29T06:09:25;1.90;;;1.80;;
18917;SDS011;9591;52.742;13.650;2024-03-29T06:12:11;5.60;;;2.13;;
18917;SDS011;9591;52.742;13.650;2024-03-29T06:14:57;3.53;;;1.80;;
18917;SDS011;9591;52.742;13.650;2024-03-29T06:18:01;1.77;;;1.67;;
18917;SDS011;9591;52.742;13.650;2024-03-29T06:20:47;1.73;;;1.63;;
18917;SDS011;9591;52.742;13.650;2024-03-29T06:23:33;1.70;;;1.60;;
18917;SDS011;9591;52.742;13.650;2024-03-29T06:26:19;2.03;;;1.70;;
18917;SDS011;9591;52.742;13.650;2024-03-29T06:29:06;3.23;;;1.70;;
18917;SDS011;9591;52.742;13.650;2024-03-29T06:31:53;4.83;;;1.87;;
18917;SDS011;9591;52.742;13.650;2024-03-29T06:34:40;3.47;;;1.40;;
18917;SDS011;9591;52.742;13.650;2024-03-29T06:37:26;1.93;;;1.80;;
18917;SDS011;9591;52.742;13.650;2024-03-29T06:40:12;2.43;;;1.70;;
18917;SDS011;9591;52.742;13.650;2024-03-29T06:42:58;1.70;;;1.60;;
18917;SDS011;9591;52.742;13.650;2024-03-29T06:45:45;5.43;;;1.60;;
18917;SDS011;9591;52.742;13.650;2024-03-29T06:48:31;1.63;;;1.50;;
18917;SDS011;9591;52.742;13.650;2024-03-29T06:51:18;1.80;;;1.70;;
18917;SDS011;9591;52.742;13.650;2024-03-29T06:54:03;1.60;;;1.50;;
18917;SDS011;9591;52.742;13.650;2024-03-29T06:56:49;2.47;;;1.80;;
18917;SDS011;9591;52.742;13.650;2024-03-29T06:59:35;3.77;;;1.50;;
18917;SDS011;9591;52.742;13.650;2024-03-29T07:02:21;3.97;;;1.60;;
18917;SDS011;9591;52.742;13.650;2024-03-29T07:05:07;3.63;;;1.53;;
18917;SDS011;9591;52.742;13.650;2024-03-29T07:07:56;4.40;;;1.50;;
18917;SDS011;9591;52.742;13.650;2024-03-29T07:10:43;2.93;;;1.63;;
18917;SDS011;9591;52.742;13.650;2024-03-29T07:13:30;1.43;;;1.30;;
18917;SDS011;9591;52.742;13.650;2024-03-29T07:16:17;2.80;;;1.70;;
18917;SDS011;9591;52.742;13.650;2024-03-29T07:19:03;3.47;;;1.60;;
18917;SDS011;9591;52.742;13.650;2024-03-29T07:21:51;3.63;;;1.60;;
18917;SDS011;9591;52.742;13.650;2024-03-29T07:24:39;2.33;;;1.57;;
18917;SDS011;9591;52.742;13.650;2024-03-29T07:27:25;2.40;;;1.63;;
18917;SDS011;9591;52.742;13.650;2024-03-29T07:30:15;4.03;;;1.30;;
18917;SDS011;9591;52.742;13.650;2024-03-29T07:33:01;4.33;;;1.60;;
18917;SDS011;9591;52.742;13.650;2024-03-29T07:35:46;3.23;;;1.70;;
18917;SDS011;9591;52.742;13.650;2024-03-29T07:38:32;2.50;;;1.37;;
18917;SDS011;9591;52.742;13.650;2024-03-29T07:41:20;1.60;;;1.10;;
18917;SDS011;9591;52.742;13.650;2024-03-29T07:44:06;1.23;;;1.10;;
18917;SDS011;9591;52.742;13.650;2024-03-29T07:46:52;3.07;;;1.40;;
18917;SDS011;9591;52.742;13.650;2024-03-29T07:49:38;1.30;;;1.20;;
18917;SDS011;9591;52.742;13.650;2024-03-29T07:52:23;1.43;;;1.33;;
18917;SDS011;9591;52.742;13.650;2024-03-29T07:55:09;2.70;;;1.20;;
18917;SDS011;9591;52.742;13.650;2024-03-29T07:57:56;2.23;;;1.70;;
18917;SDS011;9591;52.742;13.650;2024-03-29T08:00:42;3.57;;;1.30;;
18917;SDS011;9591;52.742;13.650;2024-03-29T08:03:28;2.63;;;1.30;;
18917;SDS011;9591;52.742;13.650;2024-03-29T08:06:17;4.13;;;1.60;;
18917;SDS011;9591;52.742;13.650;2024-03-29T08:09:03;3.37;;;1.23;;
18917;SDS011;9591;52.742;13.650;2024-03-29T08:11:49;1.20;;;1.20;;
18917;SDS011;9591;52.742;13.650;2024-03-29T08:14:36;2.00;;;1.30;;
18917;SDS011;9591;52.742;13.650;2024-03-29T08:17:22;2.60;;;1.40;;
18917;SDS011;9591;52.742;13.650;2024-03-29T08:20:08;1.53;;;1.10;;
18917;SDS011;9591;52.742;13.650;2024-03-29T08:22:54;1.40;;;1.30;;
18917;SDS011;9591;52.742;13.650;2024-03-29T08:25:42;1.80;;;1.30;;
18917;SDS011;9591;52.742;13.650;2024-03-29T08:28:28;3.20;;;1.40;;
18917;SDS011;9591;52.742;13.650;2024-03-29T08:31:16;2.43;;;1.43;;
18917;SDS011;9591;52.742;13.650;2024-03-29T08:34:01;2.30;;;1.50;;
18917;SDS011;9591;52.742;13.650;2024-03-29T08:36:47;1.30;;;1.10;;
18917;SDS011;9591;52.742;13.650;2024-03-29T08:39:33;2.80;;;1.47;;
18917;SDS011;9591;52.742;13.650;2024-03-29T08:42:22;4.40;;;1.30;;
18917;SDS011;9591;52.742;13.650;2024-03-29T08:45:11;2.90;;;1.40;;
18917;SDS011;9591;52.742;13.650;2024-03-29T08:47:58;2.87;;;1.33;;
18917;SDS011;9591;52.742;13.650;2024-03-29T08:50:44;2.00;;;1.33;;
18917;SDS011;9591;52.742;13.650;2024-03-29T08:53:31;3.13;;;1.40;;
18917;SDS011;9591;52.742;13.650;2024-03-29T08:56:17;1.77;;;1.53;;
18917;SDS011;9591;52.742;13.650;2024-03-29T08:59:04;1.10;;;1.10;;
18917;SDS011;9591;52.742;13.650;2024-03-29T09:01:51;1.93;;;1.23;;
18917;SDS011;9591;52.742;13.650;2024-03-29T09:04:39;6.03;;;1.67;;
18917;SDS011;9591;52.742;13.650;2024-03-29T09:07:25;1.27;;;1.20;;
18917;SDS011;9591;52.742;13.650;2024-03-29T09:10:11;2.20;;;1.30;;
18917;SDS011;9591;52.742;13.650;2024-03-29T09:12:58;2.93;;;1.20;;
18917;SDS011;9591;52.742;13.650;2024-03-29T09:15:44;4.33;;;1.53;;
18917;SDS011;9591;52.742;13.650;2024-03-29T09:18:31;1.40;;;1.20;;
18917;SDS011;9591;52.742;13.650;2024-03-29T09:21:19;3.70;;;1.30;;
18917;SDS011;9591;52.742;13.650;2024-03-29T09:24:06;2.47;;;1.00;;
18917;SDS011;9591;52.742;13.650;2024-03-29T09:26:52;1.60;;;0.97;;
18917;SDS011;9591;52.742;13.650;2024-03-29T09:29:38;2.10;;;0.97;;
18917;SDS011;9591;52.742;13.650;2024-03-29T09:32:24;2.97;;;1.03;;
18917;SDS011;9591;52.742;13.650;2024-03-29T09:35:10;0.80;;;0.80;;
18917;SDS011;9591;52.742;13.650;2024-03-29T09:37:57;3.73;;;1.10;;
18917;SDS011;9591;52.742;13.650;2024-03-29T09:40:44;1.70;;;1.10;;
18917;SDS011;9591;52.742;13.650;2024-03-29T09:43:33;2.60;;;0.93;;
18917;SDS011;9591;52.742;13.650;2024-03-29T09:46:19;1.03;;;0.93;;
18917;SDS011;9591;52.742;13.650;2024-03-29T09:49:05;2.87;;;1.00;;
18917;SDS011;9591;52.742;13.650;2024-03-29T09:51:51;0.73;;;0.70;;
18917;SDS011;9591;52.742;13.650;2024-03-29T09:54:39;1.83;;;0.73;;
18917;SDS011;9591;52.742;13.650;2024-03-29T09:57:25;6.00;;;1.43;;
18917;SDS011;9591;52.742;13.650;2024-03-29T10:00:14;1.03;;;0.90;;
18917;SDS011;9591;52.742;13.650;2024-03-29T10:03:00;1.47;;;1.37;;
18917;SDS011;9591;52.742;13.650;2024-03-29T10:05:49;5.43;;;1.30;;
18917;SDS011;9591;52.742;13.650;2024-03-29T10:08:37;2.77;;;1.27;;
18917;SDS011;9591;52.742;13.650;2024-03-29T10:11:24;1.47;;;1.03;;
18917;SDS011;9591;52.742;13.650;2024-03-29T10:14:10;7.03;;;1.00;;
18917;SDS011;9591;52.742;13.650;2024-03-29T10:16:57;3.70;;;1.10;;
18917;SDS011;9591;52.742;13.650;2024-03-29T10:19:43;1.87;;;1.03;;
18917;SDS011;9591;52.742;13.650;2024-03-29T10:22:29;1.00;;;1.00;;
18917;SDS011;9591;52.742;13.650;2024-03-29T10:25:15;4.27;;;1.20;;
18917;SDS011;9591;52.742;13.650;2024-03-29T10:28:02;1.17;;;1.03;;
18917;SDS011;9591;52.742;13.650;2024-03-29T10:30:49;1.13;;;1.03;;
18917;SDS011;9591;52.742;13.650;2024-03-29T10:33:35;1.90;;;1.10;;
18917;SDS011;9591;52.742;13.650;2024-03-29T10:36:20;3.90;;;1.20;;
18917;SDS011;9591;52.742;13.650;2024-03-29T10:39:09;2.43;;;1.20;;
18917;SDS011;9591;52.742;13.650;2024-03-29T10:41:56;1.20;;;1.07;;
18917;SDS011;9591;52.742;13.650;2024-03-29T10:44:44;4.73;;;1.20;;
18917;SDS011;9591;52.742;13.650;2024-03-29T10:47:30;0.83;;;0.77;;
18917;SDS011;9591;52.742;13.650;2024-03-29T10:50:17;2.37;;;0.90;;
18917;SDS011;9591;52.742;13.650;2024-03-29T10:53:05;1.03;;;0.87;;
18917;SDS011;9591;52.742;13.650;2024-03-29T10:55:52;5.30;;;0.90;;
18917;SDS011;9591;52.742;13.650;2024-03-29T10:58:41;2.27;;;1.00;;
18917;SDS011;9591;52.742;13.650;2024-03-29T11:01:36;0.97;;;0.73;;
18917;SDS011;9591;52.742;13.650;2024-03-29T11:04:29;1.30;;;0.90;;
18917;SDS011;9591;52.742;13.650;2024-03-29T11:07:19;1.47;;;0.83;;
18917;SDS011;9591;52.742;13.650;2024-03-29T11:10:06;1.27;;;1.17;;
18917;SDS011;9591;52.742;13.650;2024-03-29T11:12:59;1.17;;;1.03;;
18917;SDS011;9591;52.742;13.650;2024-03-29T11:15:50;2.50;;;1.27;;
18917;SDS011;9591;52.742;13.650;2024-03-29T11:18:37;0.90;;;0.90;;
18917;SDS011;9591;52.742;13.650;2024-03-29T11:21:24;1.20;;;0.90;;
18917;SDS011;9591;52.742;13.650;2024-03-29T11:24:12;0.90;;;0.90;;
18917;SDS011;9591;52.742;13.650;2024-03-29T11:26:57;0.90;;;0.90;;
18917;SDS011;9591;52.742;13.650;2024-03-29T11:29:43;2.17;;;0.83;;
18917;SDS011;9591;52.742;13.650;2024-03-29T11:32:33;0.90;;;0.90;;
18917;SDS011;9591;52.742;13.650;2024-03-29T11:35:21;1.03;;;0.90;;
18917;SDS011;9591;52.742;13.650;2024-03-29T11:38:10;0.90;;;0.80;;
18917;SDS011;9591;52.742;13.650;2024-03-29T11:41:05;3.90;;;1.20;;
18917;SDS011;9591;52.742;13.650;2024-03-29T11:43:52;5.00;;;0.90;;
18917;SDS011;9591;52.742;13.650;2024-03-29T11:46:38;1.53;;;0.90;;
18917;SDS011;9591;52.742;13.650;2024-03-29T11:49:25;2.23;;;1.00;;
18917;SDS011;9591;52.742;13.650;2024-03-29T11:52:12;0.80;;;0.80;;
18917;SDS011;9591;52.742;13.650;2024-03-29T11:54:58;0.90;;;0.90;;
18917;SDS011;9591;52.742;13.650;2024-03-29T11:57:44;1.37;;;1.07;;
18917;SDS011;9591;52.742;13.650;2024-03-29T12:00:29;1.10;;;1.00;;
18917;SDS011;9591;52.742;13.650;2024-03-29T12:03:15;0.97;;;0.80;;
18917;SDS011;9591;52.742;13.650;2024-03-29T12:06:01;2.27;;;0.90;;
18917;SDS011;9591;52.742;13.650;2024-03-29T12:08:49;1.43;;;0.80;;
18917;SDS011;9591;52.742;13.650;2024-03-29T12:11:37;2.57;;;0.77;;
18917;SDS011;9591;52.742;13.650;2024-03-29T12:14:23;2.10;;;0.70;;
18917;SDS011;9591;52.742;13.650;2024-03-29T12:17:11;3.67;;;0.83;;
18917;SDS011;9591;52.742;13.650;2024-03-29T12:19:57;0.70;;;0.70;;
18917;SDS011;9591;52.742;13.650;2024-03-29T12:22:46;0.80;;;0.80;;
18917;SDS011;9591;52.742;13.650;2024-03-29T12:25:33;0.70;;;0.70;;
18917;SDS011;9591;52.742;13.650;2024-03-29T12:28:21;0.70;;;0.70;;
18917;SDS011;9591;52.742;13.650;2024-03-29T12:31:08;0.63;;;0.60;;
18917;SDS011;9591;52.742;13.650;2024-03-29T12:33:55;0.70;;;0.70;;
18917;SDS011;9591;52.742;13.650;2024-03-29T12:36:41;0.60;;;0.60;;
18917;SDS011;9591;52.742;13.650;2024-03-29T12:39:29;1.60;;;0.80;;
18917;SDS011;9591;52.742;13.650;2024-03-29T12:42:19;2.33;;;0.90;;
18917;SDS011;9591;52.742;13.650;2024-03-29T12:45:04;1.87;;;0.60;;
18917;SDS011;9591;52.742;13.650;2024-03-29T12:47:51;0.70;;;0.70;;
18917;SDS011;9591;52.742;13.650;2024-03-29T12:50:39;2.20;;;0.70;;
18917;SDS011;9591;52.742;13.650;2024-03-29T12:53:25;2.60;;;0.70;;
18917;SDS011;9591;52.742;13.650;2024-03-29T12:56:14;0.83;;;0.80;;
18917;SDS011;9591;52.742;13.650;2024-03-29T12:59:01;0.77;;;0.53;;
18917;SDS011;9591;52.742;13.650;2024-03-29T13:01:48;1.03;;;0.70;;
18917;SDS011;9591;52.742;13.650;2024-03-29T13:04:34;1.50;;;0.70;;
18917;SDS011;9591;52.742;13.650;2024-03-29T13:07:22;3.60;;;0.87;;
18917;SDS011;9591;52.742;13.650;2024-03-29T13:10:09;0.60;;;0.60;;
18917;SDS011;9591;52.742;13.650;2024-03-29T13:12:57;1.07;;;0.80;;
18917;SDS011;9591;52.742;13.650;2024-03-29T13:15:46;1.00;;;0.90;;
18917;SDS011;9591;52.742;13.650;2024-03-29T13:18:39;0.87;;;0.60;;
18917;SDS011;9591;52.742;13.650;2024-03-29T13:21:25;1.23;;;0.60;;
18917;SDS011;9591;52.742;13.650;2024-03-29T13:24:11;3.90;;;0.77;;
18917;SDS011;9591;52.742;13.650;2024-03-29T13:26:57;1.03;;;0.80;;
18917;SDS011;9591;52.742;13.650;2024-03-29T13:29:43;0.50;;;0.50;;
18917;SDS011;9591;52.742;13.650;2024-03-29T13:32:30;0.70;;;0.63;;
18917;SDS011;9591;52.742;13.650;2024-03-29T13:35:18;2.20;;;0.70;;
18917;SDS011;9591;52.742;13.650;2024-03-29T13:38:06;0.93;;;0.70;;
18917;SDS011;9591;52.742;13.650;2024-03-29T13:40:52;0.83;;;0.80;;
18917;SDS011;9591;52.742;13.650;2024-03-29T13:43:38;3.83;;;1.00;;
18917;SDS011;9591;52.742;13.650;2024-03-29T13:46:26;1.97;;;1.00;;
18917;SDS011;9591;52.742;13.650;2024-03-29T13:49:14;1.57;;;0.70;;
18917;SDS011;9591;52.742;13.650;2024-03-29T13:52:04;1.43;;;0.90;;
18917;SDS011;9591;52.742;13.650;2024-03-29T13:54:50;0.60;;;0.60;;
18917;SDS011;9591;52.742;13.650;2024-03-29T13:57:36;0.60;;;0.60;;
18917;SDS011;9591;52.742;13.650;2024-03-29T14:00:22;1.40;;;0.90;;
18917;SDS011;9591;52.742;13.650;2024-03-29T14:03:08;0.90;;;0.80;;
18917;SDS011;9591;52.742;13.650;2024-03-29T14:05:55;2.00;;;0.93;;
18917;SDS011;9591;52.742;13.650;2024-03-29T14:08:41;0.90;;;0.90;;
18917;SDS011;9591;52.742;13.650;2024-03-29T14:11:26;1.10;;;1.00;;
18917;SDS011;9591;52.742;13.650;2024-03-29T14:14:12;1.33;;;0.90;;
18917;SDS011;9591;52.742;13.650;2024-03-29T14:16:58;1.27;;;0.70;;
18917;SDS011;9591;52.742;13.650;2024-03-29T14:19:48;1.23;;;1.10;;
18917;SDS011;9591;52.742;13.650;2024-03-29T14:22:35;1.40;;;1.20;;
18917;SDS011;9591;52.742;13.650;2024-03-29T14:25:21;3.10;;;1.27;;
18917;SDS011;9591;52.742;13.650;2024-03-29T14:28:07;1.20;;;1.00;;
18917;SDS011;9591;52.742;13.650;2024-03-29T14:30:53;0.80;;;0.80;;
18917;SDS011;9591;52.742;13.650;2024-03-29T14:33:39;0.60;;;0.60;;
18917;SDS011;9591;52.742;13.650;2024-03-29T14:36:25;3.20;;;0.80;;
18917;SDS011;9591;52.742;13.650;2024-03-29T14:39:13;0.93;;;0.70;;
18917;SDS011;9591;52.742;13.650;2024-03-29T14:41:59;1.27;;;0.70;;
18917;SDS011;9591;52.742;13.650;2024-03-29T14:44:49;2.67;;;0.80;;
18917;SDS011;9591;52.742;13.650;2024-03-29T14:47:35;0.90;;;0.90;;
18917;SDS011;9591;52.742;13.650;2024-03-29T14:50:21;1.03;;;0.87;;
18917;SDS011;9591;52.742;13.650;2024-03-29T14:53:07;1.00;;;0.87;;
18917;SDS011;9591;52.742;13.650;2024-03-29T14:55:54;0.60;;;0.60;;
18917;SDS011;9591;52.742;13.650;2024-03-29T14:58:39;1.57;;;0.83;;
18917;SDS011;9591;52.742;13.650;2024-03-29T15:01:25;1.20;;;0.87;;
18917;SDS011;9591;52.742;13.650;2024-03-29T15:04:11;4.20;;;0.90;;
18917;SDS011;9591;52.742;13.650;2024-03-29T15:06:57;2.53;;;0.80;;
18917;SDS011;9591;52.742;13.650;2024-03-29T15:09:42;1.00;;;0.90;;
18917;SDS011;9591;52.742;13.650;2024-03-29T15:12:30;0.70;;;0.70;;
18917;SDS011;9591;52.742;13.650;2024-03-29T15:15:15;0.80;;;0.80;;
18917;SDS011;9591;52.742;13.650;2024-03-29T15:18:02;1.37;;;0.93;;
18917;SDS011;9591;52.742;13.650;2024-03-29T15:20:53;0.90;;;0.80;;
18917;SDS011;9591;52.742;13.650;2024-03-29T15:23:39;1.07;;;0.80;;
18917;SDS011;9591;52.742;13.650;2024-03-29T15:26:25;1.70;;;0.73;;
18917;SDS011;9591;52.742;13.650;2024-03-29T15:29:13;1.07;;;1.00;;
18917;SDS011;9591;52.742;13.650;2024-03-29T15:32:00;1.10;;;0.80;;
18917;SDS011;9591;52.742;13.650;2024-03-29T15:34:46;0.73;;;0.70;;
18917;SDS011;9591;52.742;13.650;2024-03-29T15:37:31;0.83;;;0.83;;
18917;SDS011;9591;52.742;13.650;2024-03-29T15:40:17;2.10;;;0.80;;
18917;SDS011;9591;52.742;13.650;2024-03-29T15:43:03;0.90;;;0.80;;
18917;SDS011;9591;52.742;13.650;2024-03-29T15:45:51;0.77;;;0.70;;
18917;SDS011;9591;52.742;13.650;2024-03-29T15:48:37;0.70;;;0.70;;
18917;SDS011;9591;52.742;13.650;2024-03-29T15:51:23;2.67;;;0.70;;
18917;SDS011;9591;52.742;13.650;2024-03-29T15:54:09;0.73;;;0.73;;
18917;SDS011;9591;52.742;13.650;2024-03-29T15:57:00;1.20;;;0.90;;
18917;SDS011;9591;52.742;13.650;2024-03-29T15:59:46;1.30;;;0.80;;
18917;SDS011;9591;52.742;13.650;2024-03-29T16:02:37;1.37;;;1.00;;
18917;SDS011;9591;52.742;13.650;2024-03-29T16:05:31;1.50;;;1.00;;
18917;SDS011;9591;52.742;13.650;2024-03-29T16:08:17;2.40;;;0.93;;
18917;SDS011;9591;52.742;13.650;2024-03-29T16:11:05;0.93;;;0.87;;
18917;SDS011;9591;52.742;13.650;2024-03-29T16:13:52;1.20;;;1.10;;
18917;SDS011;9591;52.742;13.650;2024-03-29T16:16:37;1.97;;;1.07;;
18917;SDS011;9591;52.742;13.650;2024-03-29T16:19:25;0.87;;;0.87;;
18917;SDS011;9591;52.742;13.650;2024-03-29T16:22:09;1.10;;;1.00;;
18917;SDS011;9591;52.742;13.650;2024-03-29T16:24:55;1.27;;;0.80;;
18917;SDS011;9591;52.742;13.650;2024-03-29T16:27:40;3.47;;;1.20;;
18917;SDS011;9591;52.742;13.650;2024-03-29T16:30:27;2.03;;;0.67;;
18917;SDS011;9591;52.742;13.650;2024-03-29T16:33:12;1.93;;;0.90;;
18917;SDS011;9591;52.742;13.650;2024-03-29T16:36:00;2.33;;;0.93;;
18917;SDS011;9591;52.742;13.650;2024-03-29T16:38:44;1.53;;;0.90;;
18917;SDS011;9591;52.742;13.650;2024-03-29T16:41:30;0.70;;;0.70;;
18917;SDS011;9591;52.742;13.650;2024-03-29T16:44:15;2.10;;;0.90;;